Hlavní strana
METAR-TAF:

METAR-TAF

Letiště :

Goldsboro, Severní Karolína, Spojené státy americké

zeměpisná šířka: 35-27-38N, zeměpisná délka: 077-57-54W, výška: 40 m

Aktuální stav počasí

Zpráva byla vytvořena před 10 minutami, v 17:55 UTC
Západní vítr 10 kt s nárazy do 19 kt
Teplota 9°C
Vlhkost vzduchu 37%
Tlak 1015 hPa
Viditelnost: 16.1 km
Jasno

METAR: KGWW 271755Z AUTO 28010G19KT 10SM CLR 09/M05 A2998 RMK AO2 T00931053 10093 20051

Čas: 13:05 (18:05 UTC)


TAF: chybějící

Stav a předpovědi počasí z více než 4 000 letišť (zprávy METAR a TAF).

Červené a žluté tečky na mapě představují dostupné meteorologické stanice.

Když kurzor umístíte na tečku, zobrazí se název stanice.

Pak kliknutím zobrazíte stav a předpověď počasí.

Chcete-li změnit mapu, kliknutím na zelené tlačítko se znaménkem +mapu přiblížíte, kliknutím na zelené tlačítko se znaménkem – mapu oddálíte a kliknutím na zelené šipky přejdete na sousední mapy.


METAR-TAF: